Rapid City, SD

11:36 PM MDT on September 30, 2014 (GMT -0600)
GRIZZLY61 | Change Station
CLOSE
Current Station
Personal Weather Station
Location: Rapid City, SD
Elevation: 3294 ft
Nearby Weather Stations

Elev 3294 ft 44.05 °N, 103.21 °W | Updated 88 days ago

Partly Cloudy
Partly Cloudy
52 °F
Feels Like 52 °F
N
9
Wind Variable Wind from WNW
Gusts 10 mph

Today
High -- | Low -- °F
--% Chance of Precip.
Yesterday
High -- | Low -- °F
Precip. -- in
6:49 AM 6:35 PM
Waxing Crescent, 44% visible
Pressure 29.81 in
Visibility 4.0 miles
Clouds Few 1100 ft
Overcast 1800 ft
Dew Point 45 °F
Humidity 76%
Rainfall 0.00 in
Snow Depth 0 in , 1 in
UV 0 out of 12
Pollen .50 out of 12
Air Quality Not available.
Flu Activity Not available.
METAR KRAP 300452Z AUTO 35008KT 4SM +RA BR FEW011 OVC018 11/11 A2981 RMK AO2 LTG DSNT E SLP095 P0026 T01110106

More Conditions Fewer Conditions

Pressure 29.81 in
Visibility 4.0 miles
Clouds Few 1100 ft
Overcast 1800 ft
Dew Point 45 °F
Humidity 76%
Rainfall 0.00 in
Snow Depth 0 in , 1 in
UV 0 out of 12
Pollen .50 out of 12
Air Quality Not available.
Flu Activity Not available.
METAR KRAP 300452Z AUTO 35008KT 4SM +RA BR FEW011 OVC018 11/11 A2981 RMK AO2 LTG DSNT E SLP095 P0026 T01110106

More Conditions Fewer Conditions

10-Day Weather Forecast

Almanac

Astronomy

Sep. 30, 2014 Rise Set
Actual Time 6:49 AM MDT 6:35 PM MDT
Civil Twilight 6:20 AM MDT 7:04 PM MDT
Nautical Twilight 5:47 AM MDT 7:37 PM MDT
Astronomical Twilight 5:13 AM MDT 8:11 PM MDT
Moon 1:09 PM MDT (9/30) 10:58 PM MDT (9/30)
Length of Visible Light 12h 43m
Length of Day
11h 45m
Tomorrow will be 3m 0s shorter.
Waxing Crescent, 44% of the Moon is Illuminated
Oct 1
Waxing Crescent
Oct 1
First Quarter
Oct 8
Full
Oct 15
Last Quarter
Oct 23
New

Yesterday's Extremes

State Highs State Lows

Community

WunderPhotos

Upload Photos

1,757,868 photos uploaded!

Nearby

Snow Depth

Station Depth Elevation
North Rapid Creek 0 in 6130 ft
Blind Park 1 in 6890 ft

Earthquake Activity

City Distance Mag. Time & Date
No recent earthquake activity has been reported nearby.
Minimum magnitude displayed is 2.5.

Coastal Water Temperatures

Place Temperature
No Stations Reporting

Nearby Weather Stations